sensor_id;sensor_type;location;lat;lon;timestamp;temperature;humidity
60909;DHT22;46780;48.128;-1.704;2022-12-18T00:01:35;0.40;83.20
60909;DHT22;46780;48.128;-1.704;2022-12-18T00:04:03;0.40;83.30
60909;DHT22;46780;48.128;-1.704;2022-12-18T00:06:30;0.30;83.20
60909;DHT22;46780;48.128;-1.704;2022-12-18T00:08:58;0.30;83.50
60909;DHT22;46780;48.128;-1.704;2022-12-18T00:11:27;0.30;83.60
60909;DHT22;46780;48.128;-1.704;2022-12-18T00:13:56;0.30;83.70
60909;DHT22;46780;48.128;-1.704;2022-12-18T00:16:24;0.30;83.80
60909;DHT22;46780;48.128;-1.704;2022-12-18T00:18:54;0.20;83.90
60909;DHT22;46780;48.128;-1.704;2022-12-18T00:21:21;0.20;84.10
60909;DHT22;46780;48.128;-1.704;2022-12-18T00:23:49;0.20;84.20
60909;DHT22;46780;48.128;-1.704;2022-12-18T00:26:18;0.20;84.20
60909;DHT22;46780;48.128;-1.704;2022-12-18T00:28:45;0.30;84.20
60909;DHT22;46780;48.128;-1.704;2022-12-18T00:31:14;0.30;83.90
60909;DHT22;46780;48.128;-1.704;2022-12-18T00:33:41;0.30;83.70
60909;DHT22;46780;48.128;-1.704;2022-12-18T00:36:11;0.20;83.70
60909;DHT22;46780;48.128;-1.704;2022-12-18T00:38:38;0.20;84.10
60909;DHT22;46780;48.128;-1.704;2022-12-18T00:41:06;0.10;84.40
60909;DHT22;46780;48.128;-1.704;2022-12-18T00:43:32;0.10;84.80
60909;DHT22;46780;48.128;-1.704;2022-12-18T00:45:59;0.10;84.60
60909;DHT22;46780;48.128;-1.704;2022-12-18T00:48:26;0.20;84.40
60909;DHT22;46780;48.128;-1.704;2022-12-18T00:50:52;0.20;84.10
60909;DHT22;46780;48.128;-1.704;2022-12-18T00:53:20;0.20;84.20
60909;DHT22;46780;48.128;-1.704;2022-12-18T00:55:47;0.10;84.40
60909;DHT22;46780;48.128;-1.704;2022-12-18T00:58:15;0.20;84.50
60909;DHT22;46780;48.128;-1.704;2022-12-18T01:00:42;0.20;84.40
60909;DHT22;46780;48.128;-1.704;2022-12-18T01:03:10;0.20;84.30
60909;DHT22;46780;48.128;-1.704;2022-12-18T01:05:42;0.20;84.10
60909;DHT22;46780;48.128;-1.704;2022-12-18T01:08:09;0.20;84.10
60909;DHT22;46780;48.128;-1.704;2022-12-18T01:10:40;0.10;84.30
60909;DHT22;46780;48.128;-1.704;2022-12-18T01:13:06;0.20;84.30
60909;DHT22;46780;48.128;-1.704;2022-12-18T01:15:33;0.20;85.20
60909;DHT22;46780;48.128;-1.704;2022-12-18T01:17:59;0.20;84.10
60909;DHT22;46780;48.128;-1.704;2022-12-18T01:20:26;0.10;84.00
60909;DHT22;46780;48.128;-1.704;2022-12-18T01:22:54;0.10;84.20
60909;DHT22;46780;48.128;-1.704;2022-12-18T01:25:21;0.10;84.40
60909;DHT22;46780;48.128;-1.704;2022-12-18T01:27:49;0.10;84.20
60909;DHT22;46780;48.128;-1.704;2022-12-18T01:30:15;0.10;83.90
60909;DHT22;46780;48.128;-1.704;2022-12-18T01:32:42;0.10;84.00
60909;DHT22;46780;48.128;-1.704;2022-12-18T01:35:08;0.10;83.90
60909;DHT22;46780;48.128;-1.704;2022-12-18T01:37:35;0.10;83.90
60909;DHT22;46780;48.128;-1.704;2022-12-18T01:40:02;0.20;83.80
60909;DHT22;46780;48.128;-1.704;2022-12-18T01:42:28;0.20;83.50
60909;DHT22;46780;48.128;-1.704;2022-12-18T01:45:00;0.30;83.10
60909;DHT22;46780;48.128;-1.704;2022-12-18T01:47:30;0.20;83.30
60909;DHT22;46780;48.128;-1.704;2022-12-18T01:50:00;0.10;84.00
60909;DHT22;46780;48.128;-1.704;2022-12-18T01:52:29;0.10;84.30
60909;DHT22;46780;48.128;-1.704;2022-12-18T01:54:57;0.10;84.20
60909;DHT22;46780;48.128;-1.704;2022-12-18T01:57:24;0.10;84.40
60909;DHT22;46780;48.128;-1.704;2022-12-18T01:59:53;0.10;84.30
60909;DHT22;46780;48.128;-1.704;2022-12-18T02:02:21;0.00;84.30
60909;DHT22;46780;48.128;-1.704;2022-12-18T02:04:54;0.10;84.30
60909;DHT22;46780;48.128;-1.704;2022-12-18T02:07:25;0.10;84.20
60909;DHT22;46780;48.128;-1.704;2022-12-18T02:09:57;0.00;84.50
60909;DHT22;46780;48.128;-1.704;2022-12-18T02:12:30;0.00;84.80
60909;DHT22;46780;48.128;-1.704;2022-12-18T02:15:05;-0.10;84.80
60909;DHT22;46780;48.128;-1.704;2022-12-18T02:17:39;0.00;84.90
60909;DHT22;46780;48.128;-1.704;2022-12-18T02:20:13;0.00;85.80
60909;DHT22;46780;48.128;-1.704;2022-12-18T02:22:51;0.10;84.20
60909;DHT22;46780;48.128;-1.704;2022-12-18T02:25:28;0.10;84.20
60909;DHT22;46780;48.128;-1.704;2022-12-18T02:28:02;0.00;84.50
60909;DHT22;46780;48.128;-1.704;2022-12-18T02:30:33;0.00;84.70
60909;DHT22;46780;48.128;-1.704;2022-12-18T02:33:03;0.00;84.60
60909;DHT22;46780;48.128;-1.704;2022-12-18T02:35:30;0.00;84.90
60909;DHT22;46780;48.128;-1.704;2022-12-18T02:37:58;0.00;84.90
60909;DHT22;46780;48.128;-1.704;2022-12-18T02:40:27;-0.10;84.90
60909;DHT22;46780;48.128;-1.704;2022-12-18T02:42:54;-0.10;85.10
60909;DHT22;46780;48.128;-1.704;2022-12-18T02:45:23;-0.10;85.20
60909;DHT22;46780;48.128;-1.704;2022-12-18T02:47:50;-0.10;85.10
60909;DHT22;46780;48.128;-1.704;2022-12-18T02:50:22;0.00;85.00
60909;DHT22;46780;48.128;-1.704;2022-12-18T02:52:59;-0.10;84.90
60909;DHT22;46780;48.128;-1.704;2022-12-18T02:55:37;0.00;85.10
60909;DHT22;46780;48.128;-1.704;2022-12-18T02:58:13;0.00;85.10
60909;DHT22;46780;48.128;-1.704;2022-12-18T03:00:47;-0.10;84.80
60909;DHT22;46780;48.128;-1.704;2022-12-18T03:03:18;-0.10;85.20
60909;DHT22;46780;48.128;-1.704;2022-12-18T03:05:52;-0.10;85.20
60909;DHT22;46780;48.128;-1.704;2022-12-18T03:08:22;0.00;85.70
60909;DHT22;46780;48.128;-1.704;2022-12-18T03:10:53;0.00;85.10
60909;DHT22;46780;48.128;-1.704;2022-12-18T03:13:27;-0.10;85.00
60909;DHT22;46780;48.128;-1.704;2022-12-18T03:15:57;-0.10;85.00
60909;DHT22;46780;48.128;-1.704;2022-12-18T03:18:27;-0.10;85.30
60909;DHT22;46780;48.128;-1.704;2022-12-18T03:20:58;-0.10;85.30
60909;DHT22;46780;48.128;-1.704;2022-12-18T03:23:30;0.00;85.50
60909;DHT22;46780;48.128;-1.704;2022-12-18T03:26:01;0.00;85.40
60909;DHT22;46780;48.128;-1.704;2022-12-18T03:28:29;0.00;85.00
60909;DHT22;46780;48.128;-1.704;2022-12-18T03:31:00;0.00;85.00
60909;DHT22;46780;48.128;-1.704;2022-12-18T03:33:31;0.00;85.10
60909;DHT22;46780;48.128;-1.704;2022-12-18T03:36:01;0.00;85.00
60909;DHT22;46780;48.128;-1.704;2022-12-18T03:38:28;0.00;85.20
60909;DHT22;46780;48.128;-1.704;2022-12-18T03:40:59;0.00;85.10
60909;DHT22;46780;48.128;-1.704;2022-12-18T03:43:37;0.00;85.00
60909;DHT22;46780;48.128;-1.704;2022-12-18T03:46:11;0.10;85.10
60909;DHT22;46780;48.128;-1.704;2022-12-18T03:48:45;0.10;84.90
60909;DHT22;46780;48.128;-1.704;2022-12-18T03:51:17;0.10;84.60
60909;DHT22;46780;48.128;-1.704;2022-12-18T03:53:48;0.20;84.60
60909;DHT22;46780;48.128;-1.704;2022-12-18T03:56:17;0.10;84.80
60909;DHT22;46780;48.128;-1.704;2022-12-18T03:58:46;0.10;85.20
60909;DHT22;46780;48.128;-1.704;2022-12-18T04:01:16;0.10;85.10
60909;DHT22;46780;48.128;-1.704;2022-12-18T04:03:46;0.10;85.20
60909;DHT22;46780;48.128;-1.704;2022-12-18T04:06:15;0.20;84.70
60909;DHT22;46780;48.128;-1.704;2022-12-18T04:08:44;0.20;84.70
60909;DHT22;46780;48.128;-1.704;2022-12-18T04:11:12;0.20;84.70
60909;DHT22;46780;48.128;-1.704;2022-12-18T04:13:42;0.20;84.70
60909;DHT22;46780;48.128;-1.704;2022-12-18T04:16:12;0.20;84.70
60909;DHT22;46780;48.128;-1.704;2022-12-18T04:18:43;0.20;84.80
60909;DHT22;46780;48.128;-1.704;2022-12-18T04:21:11;0.30;84.70
60909;DHT22;46780;48.128;-1.704;2022-12-18T04:23:38;0.30;84.50
60909;DHT22;46780;48.128;-1.704;2022-12-18T04:26:06;0.30;84.40
60909;DHT22;46780;48.128;-1.704;2022-12-18T04:28:33;0.40;84.10
60909;DHT22;46780;48.128;-1.704;2022-12-18T04:31:01;0.40;84.80
60909;DHT22;46780;48.128;-1.704;2022-12-18T04:33:28;0.40;83.80
60909;DHT22;46780;48.128;-1.704;2022-12-18T04:35:57;0.40;83.80
60909;DHT22;46780;48.128;-1.704;2022-12-18T04:38:24;0.30;84.10
60909;DHT22;46780;48.128;-1.704;2022-12-18T04:40:52;0.40;83.90
60909;DHT22;46780;48.128;-1.704;2022-12-18T04:43:19;0.40;84.10
60909;DHT22;46780;48.128;-1.704;2022-12-18T04:45:45;0.40;85.20
60909;DHT22;46780;48.128;-1.704;2022-12-18T04:48:13;0.30;84.50
60909;DHT22;46780;48.128;-1.704;2022-12-18T04:50:40;0.40;84.20
60909;DHT22;46780;48.128;-1.704;2022-12-18T04:53:08;0.40;84.50
60909;DHT22;46780;48.128;-1.704;2022-12-18T04:55:35;0.40;84.60
60909;DHT22;46780;48.128;-1.704;2022-12-18T04:58:01;0.40;84.50
60909;DHT22;46780;48.128;-1.704;2022-12-18T05:00:28;0.50;84.20
60909;DHT22;46780;48.128;-1.704;2022-12-18T05:02:54;0.40;84.40
60909;DHT22;46780;48.128;-1.704;2022-12-18T05:05:21;0.40;84.90
60909;DHT22;46780;48.128;-1.704;2022-12-18T05:07:49;0.40;85.00
60909;DHT22;46780;48.128;-1.704;2022-12-18T05:10:17;0.40;84.90
60909;DHT22;46780;48.128;-1.704;2022-12-18T05:12:44;0.40;84.90
60909;DHT22;46780;48.128;-1.704;2022-12-18T05:15:11;0.40;85.00
60909;DHT22;46780;48.128;-1.704;2022-12-18T05:17:38;0.40;84.80
60909;DHT22;46780;48.128;-1.704;2022-12-18T05:20:05;0.50;84.90
60909;DHT22;46780;48.128;-1.704;2022-12-18T05:22:31;0.40;84.90
60909;DHT22;46780;48.128;-1.704;2022-12-18T05:24:58;0.40;85.10
60909;DHT22;46780;48.128;-1.704;2022-12-18T05:27:26;0.40;85.40
60909;DHT22;46780;48.128;-1.704;2022-12-18T05:29:53;0.40;85.50
60909;DHT22;46780;48.128;-1.704;2022-12-18T05:32:20;0.40;85.80
60909;DHT22;46780;48.128;-1.704;2022-12-18T05:34:46;0.40;85.90
60909;DHT22;46780;48.128;-1.704;2022-12-18T05:37:13;0.40;85.80
60909;DHT22;46780;48.128;-1.704;2022-12-18T05:39:39;0.50;85.90
60909;DHT22;46780;48.128;-1.704;2022-12-18T05:42:06;0.50;85.70
60909;DHT22;46780;48.128;-1.704;2022-12-18T05:44:34;0.50;85.40
60909;DHT22;46780;48.128;-1.704;2022-12-18T05:47:00;0.60;85.20
60909;DHT22;46780;48.128;-1.704;2022-12-18T05:49:27;0.70;84.90
60909;DHT22;46780;48.128;-1.704;2022-12-18T05:51:54;0.60;85.60
60909;DHT22;46780;48.128;-1.704;2022-12-18T05:54:20;0.50;85.90
60909;DHT22;46780;48.128;-1.704;2022-12-18T05:56:47;0.50;86.40
60909;DHT22;46780;48.128;-1.704;2022-12-18T05:59:13;0.60;86.40
60909;DHT22;46780;48.128;-1.704;2022-12-18T06:01:42;0.50;86.70
60909;DHT22;46780;48.128;-1.704;2022-12-18T06:04:08;0.60;87.00
60909;DHT22;46780;48.128;-1.704;2022-12-18T06:06:35;0.50;87.30
60909;DHT22;46780;48.128;-1.704;2022-12-18T06:09:02;0.50;87.30
60909;DHT22;46780;48.128;-1.704;2022-12-18T06:11:28;0.50;87.60
60909;DHT22;46780;48.128;-1.704;2022-12-18T06:13:56;0.60;87.70
60909;DHT22;46780;48.128;-1.704;2022-12-18T06:16:22;0.60;87.30
60909;DHT22;46780;48.128;-1.704;2022-12-18T06:18:50;0.70;87.20
60909;DHT22;46780;48.128;-1.704;2022-12-18T06:21:17;0.70;87.50
60909;DHT22;46780;48.128;-1.704;2022-12-18T06:23:43;0.70;87.70
60909;DHT22;46780;48.128;-1.704;2022-12-18T06:26:11;0.60;88.30
60909;DHT22;46780;48.128;-1.704;2022-12-18T06:28:38;0.70;88.40
60909;DHT22;46780;48.128;-1.704;2022-12-18T06:31:05;0.70;88.30
60909;DHT22;46780;48.128;-1.704;2022-12-18T06:33:32;0.70;88.60
60909;DHT22;46780;48.128;-1.704;2022-12-18T06:36:02;0.70;88.70
60909;DHT22;46780;48.128;-1.704;2022-12-18T06:38:30;0.80;88.50
60909;DHT22;46780;48.128;-1.704;2022-12-18T06:40:57;0.80;88.70
60909;DHT22;46780;48.128;-1.704;2022-12-18T06:43:24;0.90;88.60
60909;DHT22;46780;48.128;-1.704;2022-12-18T06:45:50;1.00;88.50
60909;DHT22;46780;48.128;-1.704;2022-12-18T06:48:17;0.90;88.40
60909;DHT22;46780;48.128;-1.704;2022-12-18T06:50:43;1.00;88.80
60909;DHT22;46780;48.128;-1.704;2022-12-18T06:53:11;0.90;88.80
60909;DHT22;46780;48.128;-1.704;2022-12-18T06:55:38;0.90;89.50
60909;DHT22;46780;48.128;-1.704;2022-12-18T06:58:04;0.90;89.70
60909;DHT22;46780;48.128;-1.704;2022-12-18T07:00:31;1.00;90.00
60909;DHT22;46780;48.128;-1.704;2022-12-18T07:02:57;1.00;90.00
60909;DHT22;46780;48.128;-1.704;2022-12-18T07:05:24;1.00;90.00
60909;DHT22;46780;48.128;-1.704;2022-12-18T07:07:50;1.10;90.00
60909;DHT22;46780;48.128;-1.704;2022-12-18T07:10:18;1.20;90.00
60909;DHT22;46780;48.128;-1.704;2022-12-18T07:12:45;1.20;90.00
60909;DHT22;46780;48.128;-1.704;2022-12-18T07:15:11;1.20;90.30
60909;DHT22;46780;48.128;-1.704;2022-12-18T07:17:38;1.20;90.50
60909;DHT22;46780;48.128;-1.704;2022-12-18T07:20:05;1.20;90.60
60909;DHT22;46780;48.128;-1.704;2022-12-18T07:22:32;1.20;90.80
60909;DHT22;46780;48.128;-1.704;2022-12-18T07:24:58;1.20;90.90
60909;DHT22;46780;48.128;-1.704;2022-12-18T07:27:26;1.20;90.90
60909;DHT22;46780;48.128;-1.704;2022-12-18T07:29:53;1.20;91.00
60909;DHT22;46780;48.128;-1.704;2022-12-18T07:32:19;1.20;91.20
60909;DHT22;46780;48.128;-1.704;2022-12-18T07:34:45;1.20;91.30
60909;DHT22;46780;48.128;-1.704;2022-12-18T07:37:12;1.20;91.50
60909;DHT22;46780;48.128;-1.704;2022-12-18T07:39:38;1.20;91.40
60909;DHT22;46780;48.128;-1.704;2022-12-18T07:42:05;1.20;91.70
60909;DHT22;46780;48.128;-1.704;2022-12-18T07:44:33;1.30;91.80
60909;DHT22;46780;48.128;-1.704;2022-12-18T07:46:59;1.30;91.80
60909;DHT22;46780;48.128;-1.704;2022-12-18T07:49:26;1.30;91.80
60909;DHT22;46780;48.128;-1.704;2022-12-18T07:51:54;1.40;91.80
60909;DHT22;46780;48.128;-1.704;2022-12-18T07:54:21;1.40;92.00
60909;DHT22;46780;48.128;-1.704;2022-12-18T07:56:48;1.40;92.50
60909;DHT22;46780;48.128;-1.704;2022-12-18T07:59:14;1.30;92.80
60909;DHT22;46780;48.128;-1.704;2022-12-18T08:01:42;1.40;92.70
60909;DHT22;46780;48.128;-1.704;2022-12-18T08:04:08;1.40;92.80
60909;DHT22;46780;48.128;-1.704;2022-12-18T08:06:35;1.40;92.90
60909;DHT22;46780;48.128;-1.704;2022-12-18T08:09:02;1.40;93.00
60909;DHT22;46780;48.128;-1.704;2022-12-18T08:11:29;1.40;93.30
60909;DHT22;46780;48.128;-1.704;2022-12-18T08:13:55;1.40;93.50
60909;DHT22;46780;48.128;-1.704;2022-12-18T08:16:23;1.50;93.40
60909;DHT22;46780;48.128;-1.704;2022-12-18T08:18:51;1.50;93.30
60909;DHT22;46780;48.128;-1.704;2022-12-18T08:21:20;1.50;93.50
60909;DHT22;46780;48.128;-1.704;2022-12-18T08:23:47;1.50;93.90
60909;DHT22;46780;48.128;-1.704;2022-12-18T08:26:14;1.50;94.00
60909;DHT22;46780;48.128;-1.704;2022-12-18T08:28:40;1.50;94.30
60909;DHT22;46780;48.128;-1.704;2022-12-18T08:31:07;1.50;94.60
60909;DHT22;46780;48.128;-1.704;2022-12-18T08:33:35;1.50;94.80
60909;DHT22;46780;48.128;-1.704;2022-12-18T08:36:04;1.50;94.90
60909;DHT22;46780;48.128;-1.704;2022-12-18T08:38:31;1.50;95.30
60909;DHT22;46780;48.128;-1.704;2022-12-18T08:40:58;1.60;95.30
60909;DHT22;46780;48.128;-1.704;2022-12-18T08:43:25;1.60;95.10
60909;DHT22;46780;48.128;-1.704;2022-12-18T08:45:51;1.60;95.30
60909;DHT22;46780;48.128;-1.704;2022-12-18T08:48:18;1.70;95.30
60909;DHT22;46780;48.128;-1.704;2022-12-18T08:50:53;1.70;95.40
60909;DHT22;46780;48.128;-1.704;2022-12-18T08:53:21;1.70;95.40
60909;DHT22;46780;48.128;-1.704;2022-12-18T08:55:48;1.80;95.40
60909;DHT22;46780;48.128;-1.704;2022-12-18T08:58:15;1.90;95.20
60909;DHT22;46780;48.128;-1.704;2022-12-18T09:00:41;1.80;95.50
60909;DHT22;46780;48.128;-1.704;2022-12-18T09:03:11;1.80;95.80
60909;DHT22;46780;48.128;-1.704;2022-12-18T09:05:38;1.80;95.90
60909;DHT22;46780;48.128;-1.704;2022-12-18T09:08:04;2.00;95.60
60909;DHT22;46780;48.128;-1.704;2022-12-18T09:10:32;1.90;95.90
60909;DHT22;46780;48.128;-1.704;2022-12-18T09:12:59;2.00;96.10
60909;DHT22;46780;48.128;-1.704;2022-12-18T09:15:25;2.00;96.10
60909;DHT22;46780;48.128;-1.704;2022-12-18T09:17:52;2.10;96.00
60909;DHT22;46780;48.128;-1.704;2022-12-18T09:20:18;2.10;96.10
60909;DHT22;46780;48.128;-1.704;2022-12-18T09:22:45;2.10;96.20
60909;DHT22;46780;48.128;-1.704;2022-12-18T09:25:11;2.20;96.00
60909;DHT22;46780;48.128;-1.704;2022-12-18T09:27:39;2.20;96.00
60909;DHT22;46780;48.128;-1.704;2022-12-18T09:30:07;2.20;96.10
60909;DHT22;46780;48.128;-1.704;2022-12-18T09:32:34;2.40;95.80
60909;DHT22;46780;48.128;-1.704;2022-12-18T09:35:00;2.40;96.00
60909;DHT22;46780;48.128;-1.704;2022-12-18T09:37:27;2.40;95.90
60909;DHT22;46780;48.128;-1.704;2022-12-18T09:39:53;2.40;95.90
60909;DHT22;46780;48.128;-1.704;2022-12-18T09:42:21;2.40;95.90
60909;DHT22;46780;48.128;-1.704;2022-12-18T09:44:50;2.40;95.80
60909;DHT22;46780;48.128;-1.704;2022-12-18T09:47:21;2.50;95.70
60909;DHT22;46780;48.128;-1.704;2022-12-18T09:49:51;2.50;95.70
60909;DHT22;46780;48.128;-1.704;2022-12-18T09:52:23;2.50;96.00
60909;DHT22;46780;48.128;-1.704;2022-12-18T09:54:53;2.50;96.10
60909;DHT22;46780;48.128;-1.704;2022-12-18T09:57:22;2.50;96.30
60909;DHT22;46780;48.128;-1.704;2022-12-18T09:59:54;2.50;96.50
60909;DHT22;46780;48.128;-1.704;2022-12-18T10:02:24;2.50;96.90
60909;DHT22;46780;48.128;-1.704;2022-12-18T10:05:02;2.50;97.00
60909;DHT22;46780;48.128;-1.704;2022-12-18T10:07:37;2.50;97.10
60909;DHT22;46780;48.128;-1.704;2022-12-18T10:10:12;2.50;97.50
60909;DHT22;46780;48.128;-1.704;2022-12-18T10:12:45;2.50;97.60
60909;DHT22;46780;48.128;-1.704;2022-12-18T10:15:23;2.40;97.60
60909;DHT22;46780;48.128;-1.704;2022-12-18T10:17:54;2.40;98.10
60909;DHT22;46780;48.128;-1.704;2022-12-18T10:20:30;2.50;98.10
60909;DHT22;46780;48.128;-1.704;2022-12-18T10:23:03;2.50;98.20
60909;DHT22;46780;48.128;-1.704;2022-12-18T10:25:36;2.50;98.60
60909;DHT22;46780;48.128;-1.704;2022-12-18T10:28:10;2.50;99.00
60909;DHT22;46780;48.128;-1.704;2022-12-18T10:30:39;2.50;99.20
60909;DHT22;46780;48.128;-1.704;2022-12-18T10:33:05;2.50;99.00
60909;DHT22;46780;48.128;-1.704;2022-12-18T10:35:32;2.60;99.00
60909;DHT22;46780;48.128;-1.704;2022-12-18T10:38:01;2.60;98.90
60909;DHT22;46780;48.128;-1.704;2022-12-18T10:40:28;2.70;98.90
60909;DHT22;46780;48.128;-1.704;2022-12-18T10:43:04;2.60;99.20
60909;DHT22;46780;48.128;-1.704;2022-12-18T10:45:31;2.70;99.20
60909;DHT22;46780;48.128;-1.704;2022-12-18T10:47:59;2.70;99.20
60909;DHT22;46780;48.128;-1.704;2022-12-18T10:50:29;2.70;99.10
60909;DHT22;46780;48.128;-1.704;2022-12-18T10:52:59;2.70;99.30
60909;DHT22;46780;48.128;-1.704;2022-12-18T10:55:30;2.80;99.20
60909;DHT22;46780;48.128;-1.704;2022-12-18T10:58:23;2.90;99.20
60909;DHT22;46780;48.128;-1.704;2022-12-18T11:01:10;2.90;99.00
60909;DHT22;46780;48.128;-1.704;2022-12-18T11:03:40;2.90;99.10
60909;DHT22;46780;48.128;-1.704;2022-12-18T11:06:09;2.80;99.30
60909;DHT22;46780;48.128;-1.704;2022-12-18T11:08:36;2.80;99.70
60909;DHT22;46780;48.128;-1.704;2022-12-18T11:11:06;2.80;99.90
60909;DHT22;46780;48.128;-1.704;2022-12-18T11:13:33;2.80;99.90
60909;DHT22;46780;48.128;-1.704;2022-12-18T11:16:00;2.90;99.90
60909;DHT22;46780;48.128;-1.704;2022-12-18T11:18:28;2.90;99.90
60909;DHT22;46780;48.128;-1.704;2022-12-18T11:21:00;2.90;99.90
60909;DHT22;46780;48.128;-1.704;2022-12-18T11:23:30;3.00;99.80
60909;DHT22;46780;48.128;-1.704;2022-12-18T11:25:58;2.90;99.90
60909;DHT22;46780;48.128;-1.704;2022-12-18T11:28:36;2.90;99.90
60909;DHT22;46780;48.128;-1.704;2022-12-18T11:31:22;3.00;99.90
60909;DHT22;46780;48.128;-1.704;2022-12-18T11:34:02;3.00;99.90
60909;DHT22;46780;48.128;-1.704;2022-12-18T11:36:32;3.10;99.90
60909;DHT22;46780;48.128;-1.704;2022-12-18T11:39:05;3.10;99.80
60909;DHT22;46780;48.128;-1.704;2022-12-18T11:41:41;3.00;99.90
60909;DHT22;46780;48.128;-1.704;2022-12-18T11:44:11;3.10;99.80
60909;DHT22;46780;48.128;-1.704;2022-12-18T11:46:45;3.20;99.70
60909;DHT22;46780;48.128;-1.704;2022-12-18T11:49:15;3.20;99.90
60909;DHT22;46780;48.128;-1.704;2022-12-18T11:51:50;3.10;99.90
60909;DHT22;46780;48.128;-1.704;2022-12-18T11:54:17;3.10;99.90
60909;DHT22;46780;48.128;-1.704;2022-12-18T11:56:48;3.20;99.90
60909;DHT22;46780;48.128;-1.704;2022-12-18T11:59:20;3.20;99.90
60909;DHT22;46780;48.128;-1.704;2022-12-18T12:01:52;3.20;99.90
60909;DHT22;46780;48.128;-1.704;2022-12-18T12:04:39;3.20;99.90
60909;DHT22;46780;48.128;-1.704;2022-12-18T12:07:20;3.30;99.90
60909;DHT22;46780;48.128;-1.704;2022-12-18T12:09:57;3.30;99.90
60909;DHT22;46780;48.128;-1.704;2022-12-18T12:12:35;3.30;99.90
60909;DHT22;46780;48.128;-1.704;2022-12-18T12:15:10;3.40;99.90
60909;DHT22;46780;48.128;-1.704;2022-12-18T12:17:44;3.40;99.90
60909;DHT22;46780;48.128;-1.704;2022-12-18T12:20:18;3.50;99.90
60909;DHT22;46780;48.128;-1.704;2022-12-18T12:22:53;3.60;99.90
60909;DHT22;46780;48.128;-1.704;2022-12-18T12:25:31;3.70;99.90
60909;DHT22;46780;48.128;-1.704;2022-12-18T12:28:10;3.70;99.90
60909;DHT22;46780;48.128;-1.704;2022-12-18T12:30:48;3.70;99.90
60909;DHT22;46780;48.128;-1.704;2022-12-18T12:33:27;3.80;99.90
60909;DHT22;46780;48.128;-1.704;2022-12-18T12:36:03;3.80;99.90
60909;DHT22;46780;48.128;-1.704;2022-12-18T12:38:40;3.80;99.90
60909;DHT22;46780;48.128;-1.704;2022-12-18T12:41:09;3.80;99.90
60909;DHT22;46780;48.128;-1.704;2022-12-18T12:43:41;3.90;99.90
60909;DHT22;46780;48.128;-1.704;2022-12-18T12:46:09;4.00;99.90
60909;DHT22;46780;48.128;-1.704;2022-12-18T12:48:40;4.20;99.90
60909;DHT22;46780;48.128;-1.704;2022-12-18T12:51:13;4.20;99.90
60909;DHT22;46780;48.128;-1.704;2022-12-18T12:53:43;4.20;99.90
60909;DHT22;46780;48.128;-1.704;2022-12-18T12:56:11;4.10;99.90
60909;DHT22;46780;48.128;-1.704;2022-12-18T12:58:53;4.10;99.90
60909;DHT22;46780;48.128;-1.704;2022-12-18T13:01:25;4.10;99.90
60909;DHT22;46780;48.128;-1.704;2022-12-18T13:04:01;4.10;99.90
60909;DHT22;46780;48.128;-1.704;2022-12-18T13:06:43;4.10;99.90
60909;DHT22;46780;48.128;-1.704;2022-12-18T13:09:13;4.20;99.90
60909;DHT22;46780;48.128;-1.704;2022-12-18T13:11:41;4.20;99.90
60909;DHT22;46780;48.128;-1.704;2022-12-18T13:14:20;4.30;99.90
60909;DHT22;46780;48.128;-1.704;2022-12-18T13:16:47;4.40;99.90
60909;DHT22;46780;48.128;-1.704;2022-12-18T13:19:21;4.50;99.90
60909;DHT22;46780;48.128;-1.704;2022-12-18T13:21:53;4.50;99.90
60909;DHT22;46780;48.128;-1.704;2022-12-18T13:24:25;4.50;99.90
60909;DHT22;46780;48.128;-1.704;2022-12-18T13:26:52;4.50;99.90
60909;DHT22;46780;48.128;-1.704;2022-12-18T13:29:43;4.50;99.90
60909;DHT22;46780;48.128;-1.704;2022-12-18T13:32:23;4.50;99.90
60909;DHT22;46780;48.128;-1.704;2022-12-18T13:37:56;4.40;99.90
60909;DHT22;46780;48.128;-1.704;2022-12-18T13:40:54;4.40;99.90
60909;DHT22;46780;48.128;-1.704;2022-12-18T13:43:31;4.40;99.90
60909;DHT22;46780;48.128;-1.704;2022-12-18T13:46:01;4.40;99.90
60909;DHT22;46780;48.128;-1.704;2022-12-18T13:48:32;4.40;99.90
60909;DHT22;46780;48.128;-1.704;2022-12-18T13:51:01;4.40;99.90
60909;DHT22;46780;48.128;-1.704;2022-12-18T13:53:33;4.40;99.90
60909;DHT22;46780;48.128;-1.704;2022-12-18T13:56:03;4.50;99.90
60909;DHT22;46780;48.128;-1.704;2022-12-18T13:58:30;4.40;99.90
60909;DHT22;46780;48.128;-1.704;2022-12-18T14:00:56;4.50;99.90
60909;DHT22;46780;48.128;-1.704;2022-12-18T14:03:25;4.50;99.90
60909;DHT22;46780;48.128;-1.704;2022-12-18T14:05:54;4.50;99.90
60909;DHT22;46780;48.128;-1.704;2022-12-18T14:08:21;4.60;99.90
60909;DHT22;46780;48.128;-1.704;2022-12-18T14:10:50;4.60;99.90
60909;DHT22;46780;48.128;-1.704;2022-12-18T14:13:24;4.80;99.90
60909;DHT22;46780;48.128;-1.704;2022-12-18T14:15:53;4.80;99.90
60909;DHT22;46780;48.128;-1.704;2022-12-18T14:18:22;4.90;99.90
60909;DHT22;46780;48.128;-1.704;2022-12-18T14:20:50;4.90;99.90
60909;DHT22;46780;48.128;-1.704;2022-12-18T14:23:29;4.90;99.90
60909;DHT22;46780;48.128;-1.704;2022-12-18T14:25:56;5.00;99.90
60909;DHT22;46780;48.128;-1.704;2022-12-18T14:28:24;5.00;99.90
60909;DHT22;46780;48.128;-1.704;2022-12-18T14:30:51;5.10;99.90
60909;DHT22;46780;48.128;-1.704;2022-12-18T14:33:18;5.10;99.90
60909;DHT22;46780;48.128;-1.704;2022-12-18T14:35:54;5.10;99.90
60909;DHT22;46780;48.128;-1.704;2022-12-18T14:38:26;5.20;99.90
60909;DHT22;46780;48.128;-1.704;2022-12-18T14:40:54;5.30;99.90
60909;DHT22;46780;48.128;-1.704;2022-12-18T14:43:22;5.40;99.90
60909;DHT22;46780;48.128;-1.704;2022-12-18T14:45:49;5.30;99.90
60909;DHT22;46780;48.128;-1.704;2022-12-18T14:48:17;5.40;99.90
60909;DHT22;46780;48.128;-1.704;2022-12-18T14:50:45;5.40;99.90
60909;DHT22;46780;48.128;-1.704;2022-12-18T14:53:21;5.40;99.90
60909;DHT22;46780;48.128;-1.704;2022-12-18T14:55:49;5.50;99.90
60909;DHT22;46780;48.128;-1.704;2022-12-18T14:58:17;5.40;99.90
60909;DHT22;46780;48.128;-1.704;2022-12-18T15:00:45;5.50;99.90
60909;DHT22;46780;48.128;-1.704;2022-12-18T15:03:15;5.50;99.90
60909;DHT22;46780;48.128;-1.704;2022-12-18T15:05:44;5.60;99.90
60909;DHT22;46780;48.128;-1.704;2022-12-18T15:08:28;5.60;99.90
60909;DHT22;46780;48.128;-1.704;2022-12-18T15:10:55;5.70;99.90
60909;DHT22;46780;48.128;-1.704;2022-12-18T15:13:23;5.60;99.90
60909;DHT22;46780;48.128;-1.704;2022-12-18T15:15:52;5.70;99.90
60909;DHT22;46780;48.128;-1.704;2022-12-18T15:18:20;5.70;99.90
60909;DHT22;46780;48.128;-1.704;2022-12-18T15:20:49;5.70;99.90
60909;DHT22;46780;48.128;-1.704;2022-12-18T15:23:21;5.80;99.90
60909;DHT22;46780;48.128;-1.704;2022-12-18T15:25:54;5.80;99.90
60909;DHT22;46780;48.128;-1.704;2022-12-18T15:28:23;5.80;99.90
60909;DHT22;46780;48.128;-1.704;2022-12-18T15:31:06;5.80;99.90
60909;DHT22;46780;48.128;-1.704;2022-12-18T15:33:34;5.90;99.90
60909;DHT22;46780;48.128;-1.704;2022-12-18T15:36:02;6.00;99.90
60909;DHT22;46780;48.128;-1.704;2022-12-18T15:38:30;6.00;99.90
60909;DHT22;46780;48.128;-1.704;2022-12-18T15:40:57;6.00;99.90
60909;DHT22;46780;48.128;-1.704;2022-12-18T15:43:24;6.00;99.90
60909;DHT22;46780;48.128;-1.704;2022-12-18T15:45:51;6.10;99.90
60909;DHT22;46780;48.128;-1.704;2022-12-18T15:48:21;6.10;99.90